Time;durP1;ratioP1;P1;durP2;ratioP2;P2;SDS_P1;SDS_P2;PMS_P1;PMS_P2;Temp;Humidity;BMP_temperature;BMP_pressure;BME280_temperature;BME280_humidity;BME280_pressure;Samples;Min_cycle;Max_cycle;Signal;HPM_P1;HPM_P2
2021/07/21 00:00:40;;;;;;;18.77;8.10;;;;;;;18.55;77.92;96631.31;4977753;28;20219;-74
2021/07/21 00:03:08;;;;;;;21.10;8.60;;;;;;;18.50;78.44;96629.28;4977422;28;20203;-74
2021/07/21 00:05:36;;;;;;;18.83;8.40;;;;;;;18.33;79.37;96629.22;4977547;28;20593;-74
2021/07/21 00:08:03;;;;;;;15.18;8.13;;;;;;;18.32;79.49;96627.56;4976819;28;20204;-74
2021/07/21 00:10:31;;;;;;;16.30;7.82;;;;;;;18.40;78.99;96631.63;4977027;28;20219;-74
2021/07/21 00:15:50;;;;;;;19.20;8.52;;;;;;;18.75;78.39;96626.63;4977498;28;20233;-74
2021/07/21 00:18:20;;;;;;;19.88;8.45;;;;;;;18.73;79.32;96628.72;4976607;28;20298;-74
2021/07/21 00:20:49;;;;;;;18.55;8.45;;;;;;;18.79;78.70;96635.84;4977824;28;20339;-74
2021/07/21 00:23:15;;;;;;;22.02;8.32;;;;;;;18.78;79.26;96637.72;4976948;28;20203;-74
2021/07/21 00:25:42;;;;;;;17.92;8.77;;;;;;;18.61;80.82;96638.44;4976871;28;20481;-74
2021/07/21 00:28:09;;;;;;;17.98;8.77;;;;;;;18.67;80.90;96641.09;4975981;28;20416;-74
2021/07/21 00:30:35;;;;;;;17.67;8.43;;;;;;;18.71;80.46;96626.28;4976482;28;20234;-74
2021/07/21 00:33:02;;;;;;;13.95;8.30;;;;;;;18.87;79.99;96633.72;4977096;28;20789;-74
2021/07/21 00:35:30;;;;;;;19.70;9.35;;;;;;;18.89;80.18;96628.16;4976498;28;21240;-74
2021/07/21 00:37:57;;;;;;;18.35;8.93;;;;;;;18.65;80.83;96621.78;4974095;28;20215;-74
2021/07/21 00:40:23;;;;;;;17.33;8.85;;;;;;;18.82;80.30;96624.75;4976865;28;20223;-73
2021/07/21 00:42:50;;;;;;;17.02;8.48;;;;;;;18.85;79.91;96627.81;4976522;28;20713;-74
2021/07/21 00:45:16;;;;;;;16.73;8.43;;;;;;;18.74;79.76;96625.84;4976928;28;20236;-74
2021/07/21 00:47:43;;;;;;;17.70;9.48;;;;;;;18.78;79.70;96616.34;4977210;28;20694;-74
2021/07/21 00:50:11;;;;;;;16.92;8.60;;;;;;;18.84;79.36;96631.50;4976152;28;20237;-75
2021/07/21 00:52:42;;;;;;;18.88;8.75;;;;;;;18.74;79.68;96633.03;4977231;28;20203;-73
2021/07/21 00:55:10;;;;;;;18.65;9.10;;;;;;;18.65;80.32;96637.81;4977076;28;20206;-74
2021/07/21 00:57:38;;;;;;;17.63;9.02;;;;;;;18.57;81.25;96623.91;4976665;28;20210;-74
2021/07/21 01:00:07;;;;;;;17.77;8.95;;;;;;;18.62;80.89;96622.25;4976425;28;20603;-74
2021/07/21 01:02:34;;;;;;;19.58;8.07;;;;;;;18.69;79.26;96625.66;4976784;28;20455;-74
2021/07/21 01:05:01;;;;;;;18.38;9.02;;;;;;;18.69;79.00;96617.66;4976144;28;20702;-74
2021/07/21 01:07:28;;;;;;;14.63;8.35;;;;;;;18.69;78.96;96617.66;4975917;28;21031;-74
2021/07/21 01:09:56;;;;;;;20.00;8.65;;;;;;;18.77;78.78;96613.91;4976303;28;20223;-74
2021/07/21 01:12:29;;;;;;;16.05;8.73;;;;;;;18.74;78.79;96609.81;4976428;28;20211;-74
2021/07/21 01:15:08;;;;;;;15.32;8.25;;;;;;;18.72;79.20;96617.22;4976459;28;20250;-74
2021/07/21 01:17:40;;;;;;;15.50;8.02;;;;;;;18.63;78.35;96602.50;4976737;28;20203;-74
2021/07/21 01:20:33;;;;;;;16.58;8.23;;;;;;;18.57;79.44;96618.56;4976296;28;20219;-74
2021/07/21 01:23:08;;;;;;;20.75;9.48;;;;;;;18.54;80.36;96609.13;4976530;28;20207;-74
2021/07/21 01:25:43;;;;;;;18.75;8.95;;;;;;;18.58;79.71;96615.72;4976193;28;20223;-74
2021/07/21 01:28:12;;;;;;;15.40;8.35;;;;;;;18.60;79.37;96613.63;4976146;28;20660;-73
2021/07/21 01:30:40;;;;;;;18.02;8.73;;;;;;;18.54;80.02;96603.81;4975877;28;20227;-74
2021/07/21 01:33:10;;;;;;;15.75;8.45;;;;;;;18.56;79.44;96607.09;4976745;28;20219;-74
2021/07/21 01:35:39;;;;;;;17.30;8.00;;;;;;;18.58;78.72;96599.69;4976292;28;20226;-75
2021/07/21 01:38:09;;;;;;;18.27;8.57;;;;;;;18.62;78.49;96598.22;4973038;28;20207;-74
2021/07/21 01:40:39;;;;;;;17.20;7.90;;;;;;;18.64;77.99;96603.34;4976431;28;21125;-74
2021/07/21 01:43:11;;;;;;;19.30;8.70;;;;;;;18.34;79.45;96603.16;4975552;28;20709;-74
2021/07/21 01:45:44;;;;;;;14.77;7.63;;;;;;;18.46;78.76;96601.41;4975776;28;20226;-74
2021/07/21 01:48:11;;;;;;;16.23;8.50;;;;;;;18.09;79.63;96603.28;4975444;28;20207;-74
2021/07/21 01:50:39;;;;;;;15.75;8.63;;;;;;;17.93;80.80;96601.91;4975515;28;20223;-74
2021/07/21 01:53:05;;;;;;;19.85;9.63;;;;;;;17.85;81.69;96601.38;4975988;28;20567;-74
2021/07/21 01:55:32;;;;;;;18.60;9.23;;;;;;;17.98;81.36;96606.63;4976655;28;20195;-74
2021/07/21 01:58:01;;;;;;;21.10;9.77;;;;;;;18.09;81.41;96603.28;4976136;28;20222;-74
2021/07/21 02:00:28;;;;;;;20.88;8.68;;;;;;;18.04;80.31;96611.13;4975291;28;20227;-74
2021/07/21 02:02:57;;;;;;;16.58;8.40;;;;;;;18.29;79.21;96601.31;4976009;28;20207;-74
2021/07/21 02:05:25;;;;;;;19.65;8.93;;;;;;;18.30;78.94;96601.09;4976290;28;20232;-74
2021/07/21 02:07:52;;;;;;;17.30;8.43;;;;;;;18.15;79.60;96600.56;4975438;28;20204;-74
2021/07/21 02:10:22;;;;;;;21.63;8.43;;;;;;;18.10;79.72;96599.56;4975517;28;20223;-74
2021/07/21 02:12:52;;;;;;;18.10;8.88;;;;;;;17.89;80.15;96603.38;4975668;28;20203;-74
2021/07/21 02:15:19;;;;;;;17.70;8.45;;;;;;;17.91;80.11;96601.31;4972331;28;20211;-74
2021/07/21 02:17:47;;;;;;;17.42;8.52;;;;;;;17.90;80.26;96605.00;4974580;28;20203;-74
2021/07/21 02:20:15;;;;;;;18.45;8.80;;;;;;;18.08;79.76;96601.66;4975082;28;20627;-73
2021/07/21 02:22:43;;;;;;;17.45;8.88;;;;;;;17.70;80.86;96605.34;4975497;28;20777;-73
2021/07/21 02:25:11;;;;;;;14.63;8.82;;;;;;;17.80;80.58;96609.19;4975250;28;20234;-74
2021/07/21 02:27:39;;;;;;;21.33;9.00;;;;;;;17.79;81.03;96610.19;4974514;28;20200;-74
2021/07/21 02:30:08;;;;;;;17.90;9.68;;;;;;;17.73;81.47;96605.69;4975529;28;20707;-74
2021/07/21 02:32:40;;;;;;;20.85;10.05;;;;;;;17.86;81.59;96609.13;4975489;28;20199;-74
2021/07/21 02:35:08;;;;;;;22.58;9.13;;;;;;;17.74;81.39;96610.00;4975874;28;20200;-74
2021/07/21 02:37:36;;;;;;;20.48;9.50;;;;;;;17.88;80.01;96603.59;4974773;28;20207;-73
2021/07/21 02:40:06;;;;;;;14.63;8.15;;;;;;;17.93;78.71;96598.44;4972746;28;20317;-74
2021/07/21 02:42:33;;;;;;;17.88;8.70;;;;;;;17.74;79.67;96610.84;4975061;28;20218;-74
2021/07/21 02:44:59;;;;;;;21.85;9.82;;;;;;;17.64;80.77;96606.16;4975350;28;20207;-74
2021/07/21 02:47:28;;;;;;;17.42;9.27;;;;;;;17.55;81.31;96610.91;4974857;28;20204;-74
2021/07/21 02:49:54;;;;;;;28.67;10.30;;;;;;;17.54;80.98;96608.47;4975198;28;20240;-74
2021/07/21 02:52:25;;;;;;;16.13;8.75;;;;;;;17.91;79.69;96605.84;4974931;28;20207;-74
2021/07/21 02:55:03;;;;;;;16.63;8.90;;;;;;;17.85;79.38;96607.50;4977246;28;20383;-74
2021/07/21 02:57:37;;;;;;;22.05;8.63;;;;;;;17.76;79.23;96607.97;4977707;28;20218;-74
2021/07/21 03:00:10;;;;;;;20.75;8.05;;;;;;;17.74;79.13;96605.53;4978531;28;20226;-74
2021/07/21 03:02:38;;;;;;;18.10;8.30;;;;;;;17.64;79.66;96601.66;4979093;28;20588;-74
2021/07/21 03:05:07;;;;;;;19.25;8.38;;;;;;;17.49;79.93;96601.13;4978575;28;20622;-74
2021/07/21 03:07:37;;;;;;;14.30;7.95;;;;;;;17.51;79.50;96601.69;4977509;28;20766;-74
2021/07/21 03:10:06;;;;;;;17.55;7.70;;;;;;;17.51;79.21;96598.22;4978922;28;20280;-74
2021/07/21 03:12:37;;;;;;;16.10;8.63;;;;;;;17.43;79.50;96601.13;4979444;28;20699;-74
2021/07/21 03:15:05;;;;;;;16.13;8.55;;;;;;;17.40;79.31;96606.84;4978773;28;20238;-74
2021/07/21 03:17:36;;;;;;;19.50;9.00;;;;;;;17.41;79.41;96593.34;4977870;28;20207;-74
2021/07/21 03:20:04;;;;;;;16.17;8.50;;;;;;;17.37;79.49;96596.63;4978581;28;20593;-74
2021/07/21 03:22:31;;;;;;;18.55;8.68;;;;;;;17.24;79.38;96601.97;4978391;28;20246;-74
2021/07/21 03:24:58;;;;;;;19.27;9.13;;;;;;;17.17;80.31;96607.31;4978238;28;20229;-74
2021/07/21 03:27:27;;;;;;;19.67;9.63;;;;;;;17.19;81.23;96607.91;4978023;28;20203;-74
2021/07/21 03:29:55;;;;;;;19.10;9.48;;;;;;;17.23;81.23;96606.50;4978074;28;20219;-74
2021/07/21 03:32:25;;;;;;;27.23;9.73;;;;;;;17.22;81.09;96615.50;4978642;28;20233;-74
2021/07/21 03:34:52;;;;;;;26.48;9.77;;;;;;;17.14;81.29;96621.06;4978271;28;20214;-74
2021/07/21 03:37:20;;;;;;;29.48;10.10;;;;;;;17.14;81.12;96629.06;4977240;28;20255;-74
2021/07/21 03:39:54;;;;;;;28.27;10.00;;;;;;;17.30;79.73;96631.28;4975150;28;20227;-74
2021/07/21 03:42:21;;;;;;;17.40;8.68;;;;;;;17.06;79.35;96630.28;4978533;28;20215;-73
2021/07/21 03:44:50;;;;;;;16.67;8.32;;;;;;;17.27;79.02;96631.72;4978297;28;20264;-74
2021/07/21 03:47:19;;;;;;;20.52;8.07;;;;;;;17.27;79.14;96630.88;4977009;28;20249;-74
2021/07/21 03:49:46;;;;;;;17.23;9.18;;;;;;;17.28;79.34;96625.34;4977311;28;20254;-74
2021/07/21 03:52:13;;;;;;;14.75;8.75;;;;;;;17.17;78.68;96622.47;4978312;28;20290;-74
2021/07/21 03:54:41;;;;;;;20.52;8.77;;;;;;;17.30;78.72;96622.50;4977868;28;20553;-73
2021/07/21 03:57:08;;;;;;;17.48;9.43;;;;;;;17.26;78.99;96634.56;4977193;28;20723;-74
2021/07/21 03:59:36;;;;;;;22.73;9.45;;;;;;;17.28;79.37;96636.00;4977771;28;20227;-74
2021/07/21 04:02:05;;;;;;;22.52;9.07;;;;;;;16.88;81.37;96636.25;4977927;28;20211;-74
2021/07/21 04:04:32;;;;;;;25.30;8.88;;;;;;;16.94;80.12;96637.25;4976725;28;20288;-74
2021/07/21 04:06:59;;;;;;;21.60;9.38;;;;;;;17.13;78.85;96634.56;4977461;28;20231;-74
2021/07/21 04:09:27;;;;;;;20.85;9.95;;;;;;;17.25;78.80;96635.63;4977525;28;20207;-74
2021/07/21 04:11:56;;;;;;;19.95;9.50;;;;;;;17.16;79.98;96634.16;4977725;28;20207;-74
2021/07/21 04:14:23;;;;;;;21.17;9.65;;;;;;;17.19;80.29;96639.88;4977546;28;20204;-74
2021/07/21 04:16:52;;;;;;;18.05;8.82;;;;;;;17.31;79.86;96642.75;4977519;28;20206;-73
2021/07/21 04:19:21;;;;;;;18.77;8.63;;;;;;;17.13;79.87;96645.22;4976148;28;20246;-74
2021/07/21 04:21:49;;;;;;;18.92;8.50;;;;;;;17.23;79.07;96643.78;4977055;28;20208;-74
2021/07/21 04:24:16;;;;;;;24.40;8.98;;;;;;;17.17;80.18;96649.94;4978779;28;20207;-74
2021/07/21 04:26:44;;;;;;;26.42;9.95;;;;;;;17.27;80.08;96650.38;4976932;28;20230;-74
2021/07/21 04:29:12;;;;;;;26.17;9.65;;;;;;;17.29;80.11;96645.63;4976338;28;20203;-74
2021/07/21 04:31:39;;;;;;;24.00;9.18;;;;;;;17.24;80.00;96644.59;4976902;28;20329;-74
2021/07/21 04:34:07;;;;;;;15.73;8.75;;;;;;;17.14;80.74;96660.16;4978027;28;20207;-74
2021/07/21 04:36:38;;;;;;;21.23;9.32;;;;;;;17.50;80.01;96660.53;4976958;28;20206;-74
2021/07/21 04:39:05;;;;;;;19.48;8.90;;;;;;;17.52;79.97;96653.97;4974064;28;20215;-74
2021/07/21 04:41:33;;;;;;;17.52;9.38;;;;;;;17.48;80.55;96662.63;4976910;28;20238;-74
2021/07/21 04:44:01;;;;;;;22.92;9.52;;;;;;;17.30;81.76;96665.91;4976821;28;20207;-74
2021/07/21 04:46:29;;;;;;;21.23;9.50;;;;;;;17.09;83.04;96663.47;4976706;28;20703;-74
2021/07/21 04:48:56;;;;;;;22.35;10.15;;;;;;;17.50;81.66;96661.38;4976897;28;20318;-74
2021/07/21 04:51:24;;;;;;;23.05;9.82;;;;;;;17.67;81.11;96670.53;4976836;28;20327;-73
2021/07/21 04:53:55;;;;;;;22.65;10.98;;;;;;;17.71;80.97;96668.28;4977686;28;20200;-74
2021/07/21 04:56:22;;;;;;;23.25;10.43;;;;;;;17.75;81.18;96672.97;4976626;28;20210;-74
2021/07/21 04:58:49;;;;;;;23.23;10.00;;;;;;;17.88;80.61;96665.75;4976360;28;20210;-74
2021/07/21 05:01:16;;;;;;;23.13;10.57;;;;;;;17.99;80.55;96669.59;4976543;28;20241;-73
2021/07/21 05:03:43;;;;;;;21.10;10.45;;;;;;;18.07;80.66;96664.81;4977100;28;20363;-74
2021/07/21 05:06:10;;;;;;;21.35;10.65;;;;;;;18.10;80.98;96669.75;4976263;28;20230;-74
2021/07/21 05:08:36;;;;;;;19.55;9.55;;;;;;;17.84;82.90;96674.38;4976099;28;20211;-73
2021/07/21 05:11:04;;;;;;;20.95;10.75;;;;;;;18.12;82.56;96672.19;4976329;28;20232;-74
2021/07/21 05:13:32;;;;;;;19.88;10.25;;;;;;;18.17;82.49;96675.06;4976847;28;20199;-74
2021/07/21 05:15:59;;;;;;;19.80;10.27;;;;;;;18.12;82.91;96677.53;4976474;28;20568;-74
2021/07/21 05:18:25;;;;;;;23.45;10.88;;;;;;;18.28;81.89;96671.72;4975452;28;20204;-74
2021/07/21 05:20:52;;;;;;;27.42;11.25;;;;;;;18.37;80.00;96680.09;4976295;28;20230;-74
2021/07/21 05:23:18;;;;;;;21.50;11.25;;;;;;;18.57;79.57;96678.13;4976442;28;20207;-74
2021/07/21 05:25:44;;;;;;;20.98;11.00;;;;;;;18.62;80.27;96675.63;4976404;28;20632;-74
2021/07/21 05:28:12;;;;;;;21.30;10.63;;;;;;;18.82;78.08;96681.63;4975929;28;20214;-74
2021/07/21 05:30:39;;;;;;;20.73;10.65;;;;;;;18.82;77.42;96686.97;4976112;28;20234;-74
2021/07/21 05:33:05;;;;;;;20.02;10.63;;;;;;;19.00;78.65;96692.38;4976679;28;20200;-74
2021/07/21 05:35:32;;;;;;;23.52;11.10;;;;;;;19.12;78.13;96682.66;4977701;28;20652;-74
2021/07/21 05:37:58;;;;;;;20.95;10.32;;;;;;;19.17;77.32;96688.16;4972404;28;20260;-74
2021/07/21 05:40:25;;;;;;;23.25;11.70;;;;;;;19.19;77.89;96688.75;4976061;28;20234;-74
2021/07/21 05:42:51;;;;;;;24.13;11.70;;;;;;;19.25;78.55;96690.56;4976142;28;20207;-74
2021/07/21 05:45:19;;;;;;;23.27;11.65;;;;;;;19.45;78.40;96688.50;4976952;28;20203;-74
2021/07/21 05:47:46;;;;;;;25.88;11.73;;;;;;;19.35;78.28;96689.03;4975166;28;20230;-74
2021/07/21 05:50:12;;;;;;;21.85;11.98;;;;;;;19.37;77.82;96691.47;4975408;28;20222;-74
2021/07/21 05:52:39;;;;;;;20.90;11.50;;;;;;;19.56;78.04;96690.47;4973552;28;20203;-74
2021/07/21 05:55:06;;;;;;;25.95;11.85;;;;;;;19.67;78.37;96683.34;4975844;28;20213;-75
2021/07/21 05:57:33;;;;;;;24.13;12.02;;;;;;;19.57;79.42;96692.91;4974624;28;20195;-74
2021/07/21 05:59:59;;;;;;;21.85;11.68;;;;;;;19.66;78.23;96700.41;4975486;28;20250;-74
2021/07/21 06:02:27;;;;;;;23.58;12.30;;;;;;;19.82;77.50;96699.03;4975582;28;20207;-74
2021/07/21 06:04:54;;;;;;;22.15;11.73;;;;;;;19.56;79.44;96698.50;4974519;28;20292;-74
2021/07/21 06:07:20;;;;;;;20.15;11.68;;;;;;;19.67;78.57;96699.38;4975887;28;20624;-74
2021/07/21 06:09:46;;;;;;;22.02;11.40;;;;;;;19.83;78.05;96697.97;4975559;28;20227;-74
2021/07/21 06:12:13;;;;;;;20.92;11.30;;;;;;;19.86;77.67;96709.06;4976579;28;20199;-74
2021/07/21 06:14:39;;;;;;;24.00;11.50;;;;;;;19.92;78.77;96708.19;4976678;28;20260;-74
2021/07/21 06:17:06;;;;;;;23.30;11.88;;;;;;;20.01;76.11;96706.88;4976190;28;20207;-75
2021/07/21 06:19:34;;;;;;;23.00;12.23;;;;;;;20.06;77.16;96704.34;4976339;28;20203;-74
2021/07/21 06:22:01;;;;;;;21.85;11.13;;;;;;;20.20;76.83;96703.13;4976197;28;20260;-74
2021/07/21 06:24:28;;;;;;;30.73;13.18;;;;;;;20.19;78.60;96712.19;4975056;28;20210;-74
2021/07/21 06:26:55;;;;;;;24.50;11.60;;;;;;;20.45;76.53;96704.63;4975764;28;20211;-74
2021/07/21 06:29:22;;;;;;;22.85;12.13;;;;;;;20.30;78.55;96717.63;4973889;28;20293;-74
2021/07/21 06:31:49;;;;;;;26.52;12.60;;;;;;;20.44;78.09;96718.25;4975824;28;20210;-74
2021/07/21 06:34:15;;;;;;;22.60;12.02;;;;;;;20.55;77.60;96717.50;4976110;28;20211;-74
2021/07/21 06:36:43;;;;;;;22.25;11.45;;;;;;;20.87;76.24;96715.19;4976600;28;20207;-74
2021/07/21 06:39:09;;;;;;;20.40;11.60;;;;;;;20.93;75.56;96729.53;4971619;28;20210;-74
2021/07/21 06:41:36;;;;;;;23.13;11.27;;;;;;;20.91;73.47;96731.59;4976383;28;20234;-74
2021/07/21 06:44:03;;;;;;;19.80;11.35;;;;;;;20.93;73.76;96742.94;4974485;28;20215;-73
2021/07/21 06:46:30;;;;;;;25.58;11.48;;;;;;;21.27;73.00;96734.97;4974843;28;20228;-73
2021/07/21 06:48:56;;;;;;;21.38;10.95;;;;;;;21.35;72.08;96737.31;4974432;28;20203;-74
2021/07/21 06:51:23;;;;;;;22.40;11.48;;;;;;;21.40;72.03;96736.59;4975637;28;20276;-74
2021/07/21 06:53:51;;;;;;;21.23;11.20;;;;;;;21.68;71.90;96741.09;4974962;28;20210;-73
2021/07/21 06:56:17;;;;;;;21.23;10.60;;;;;;;21.71;72.38;96742.50;4975134;28;21115;-74
2021/07/21 06:58:44;;;;;;;24.40;11.38;;;;;;;21.65;69.90;96741.56;4974837;28;20220;-73
2021/07/21 07:01:11;;;;;;;23.05;11.75;;;;;;;21.58;71.15;96742.72;4974324;28;20733;-73
2021/07/21 07:03:37;;;;;;;23.83;10.43;;;;;;;22.01;70.33;96741.31;4974031;28;20203;-73
2021/07/21 07:09:07;;;;;;;21.77;11.38;;;;;;;22.37;69.46;96741.03;5059955;28;20236;-71
2021/07/21 07:14:55;;;;;;;21.48;10.40;;;;;;;22.36;69.41;96756.31;5071683;28;20243;-71
2021/07/21 07:17:21;;;;;;;24.83;10.95;;;;;;;22.51;68.79;96748.56;5059886;28;20223;-71
2021/07/21 07:19:48;;;;;;;21.58;11.30;;;;;;;22.24;71.73;96758.19;5064845;28;20201;-71
2021/07/21 07:22:14;;;;;;;21.73;10.75;;;;;;;22.64;69.20;96752.84;5070838;28;20671;-70
2021/07/21 07:24:42;;;;;;;18.85;10.02;;;;;;;22.60;67.38;96752.50;5071239;28;20224;-70
2021/07/21 07:27:09;;;;;;;22.52;10.98;;;;;;;22.68;70.42;96747.59;5070517;28;20232;-70
2021/07/21 07:29:35;;;;;;;22.10;10.98;;;;;;;22.29;68.80;96752.97;5070993;28;20193;-71
2021/07/21 07:32:02;;;;;;;22.15;10.10;;;;;;;22.67;67.06;96755.88;5068352;28;20692;-71
2021/07/21 07:34:29;;;;;;;21.02;9.68;;;;;;;23.10;67.58;96756.97;5072066;28;20200;-71
2021/07/21 07:36:55;;;;;;;21.15;9.80;;;;;;;23.41;65.12;96749.22;5070828;28;20209;-71
2021/07/21 07:39:22;;;;;;;24.70;10.90;;;;;;;23.48;63.70;96743.66;5070850;28;20192;-71
2021/07/21 07:41:50;;;;;;;17.73;9.98;;;;;;;23.73;63.14;96752.97;5074266;28;20219;-72
2021/07/21 07:44:17;;;;;;;21.42;9.98;;;;;;;23.66;63.99;96744.25;5071786;28;20200;-71
2021/07/21 07:46:43;;;;;;;23.60;10.77;;;;;;;23.70;64.86;96740.03;5074317;28;20225;-70
2021/07/21 07:49:10;;;;;;;22.00;9.77;;;;;;;23.86;64.84;96749.16;5074431;28;20201;-71
2021/07/21 07:51:37;;;;;;;19.27;10.05;;;;;;;23.47;64.75;96739.34;5069122;28;20679;-71
2021/07/21 07:54:05;;;;;;;17.48;10.27;;;;;;;23.61;65.76;96733.41;5068517;28;20201;-71
2021/07/21 07:56:33;;;;;;;21.13;10.52;;;;;;;23.63;64.91;96733.94;5072745;28;20270;-71
2021/07/21 07:59:02;;;;;;;20.02;10.05;;;;;;;24.14;63.76;96739.84;5074659;28;20201;-70
2021/07/21 08:01:28;;;;;;;22.15;9.88;;;;;;;23.96;63.17;96736.63;5074881;28;20204;-71
2021/07/21 08:03:55;;;;;;;18.30;9.90;;;;;;;24.34;63.01;96742.81;5074706;28;20205;-71
2021/07/21 08:06:21;;;;;;;19.85;10.18;;;;;;;24.46;62.82;96740.03;5073761;28;20227;-70
2021/07/21 08:08:48;;;;;;;19.75;10.63;;;;;;;24.56;62.26;96744.47;5074209;28;20224;-72
2021/07/21 08:11:14;;;;;;;17.88;10.73;;;;;;;23.93;60.89;96743.34;5074371;28;20208;-71
2021/07/21 08:13:41;;;;;;;19.50;10.02;;;;;;;24.34;61.34;96742.81;5074377;28;20212;-71
2021/07/21 08:16:09;;;;;;;20.13;9.95;;;;;;;24.66;62.40;96736.50;5074204;28;20228;-71
2021/07/21 08:18:37;;;;;;;21.10;9.85;;;;;;;24.73;61.29;96747.09;5074462;28;20204;-71
2021/07/21 08:21:04;;;;;;;22.83;9.48;;;;;;;24.37;60.94;96752.28;5074110;28;20201;-71
2021/07/21 08:23:31;;;;;;;17.95;9.27;;;;;;;24.44;59.48;96744.84;5074429;28;20197;-71
2021/07/21 08:25:57;;;;;;;19.63;9.68;;;;;;;24.55;61.06;96749.31;5073517;28;20215;-71
2021/07/21 08:28:23;;;;;;;15.02;8.43;;;;;;;24.71;60.53;96744.66;5073653;28;20209;-70
2021/07/21 08:30:50;;;;;;;19.67;9.63;;;;;;;24.87;60.01;96738.38;5074275;28;20200;-71
2021/07/21 08:33:18;;;;;;;15.52;9.70;;;;;;;24.97;58.89;96743.84;5074268;28;20197;-71
2021/07/21 08:35:45;;;;;;;16.15;9.40;;;;;;;24.76;56.69;96731.22;5073144;28;20193;-70
2021/07/21 08:38:12;;;;;;;18.23;8.88;;;;;;;25.17;57.56;96733.31;5073538;28;20274;-72
2021/07/21 08:40:41;;;;;;;32.58;9.32;;;;;;;24.95;57.46;96734.38;5073034;28;20204;-72
2021/07/21 08:43:09;;;;;;;18.17;9.00;;;;;;;24.84;56.60;96730.78;5074133;28;20204;-72
2021/07/21 08:45:36;;;;;;;22.17;9.38;;;;;;;24.69;57.90;96730.63;5073216;28;20687;-72
2021/07/21 08:48:03;;;;;;;16.85;9.27;;;;;;;24.80;57.50;96734.25;5073562;28;20231;-72
2021/07/21 08:50:31;;;;;;;16.63;9.00;;;;;;;25.25;58.28;96722.03;5073488;28;20204;-72
2021/07/21 08:52:58;;;;;;;18.77;9.88;;;;;;;25.32;57.65;96728.06;5073339;28;20208;-72
2021/07/21 08:55:25;;;;;;;16.40;9.07;;;;;;;25.42;56.31;96730.81;5070748;28;20228;-72
2021/07/21 08:57:52;;;;;;;16.75;9.57;;;;;;;25.49;56.50;96731.44;5071834;28;20562;-72
2021/07/21 09:00:20;;;;;;;12.75;8.80;;;;;;;25.39;55.09;96736.75;5073541;28;20208;-72
2021/07/21 09:02:47;;;;;;;17.60;9.50;;;;;;;25.09;58.44;96735.63;5073283;28;20205;-71
2021/07/21 09:05:16;;;;;;;18.08;8.88;;;;;;;25.59;53.20;96736.91;5072346;28;20204;-72
2021/07/21 09:07:45;;;;;;;17.20;8.70;;;;;;;25.55;54.37;96731.22;5073063;28;20224;-72
2021/07/21 09:10:15;;;;;;;20.80;9.45;;;;;;;25.17;55.25;96727.91;5073526;28;20220;-72
2021/07/21 09:12:43;;;;;;;17.48;8.20;;;;;;;25.46;55.08;96738.16;5073304;28;20627;-72
2021/07/21 09:15:12;;;;;;;17.23;9.13;;;;;;;25.63;53.04;96738.03;5073186;28;20205;-72
2021/07/21 09:17:57;;;;;;;20.50;9.27;;;;;;;25.77;57.01;96740.03;5073129;28;20220;-72
2021/07/21 09:20:24;;;;;;;15.23;8.13;;;;;;;25.90;53.12;96740.44;5073150;28;20204;-71
2021/07/21 09:22:54;;;;;;;15.43;8.63;;;;;;;25.96;52.73;96733.97;5073265;28;20208;-72
2021/07/21 09:25:23;;;;;;;17.33;8.32;;;;;;;25.90;52.81;96742.28;5072741;28;20201;-72
2021/07/21 09:27:52;;;;;;;16.60;7.93;;;;;;;26.01;52.00;96736.69;5072839;28;20232;-72
2021/07/21 09:30:21;;;;;;;17.92;8.63;;;;;;;26.28;52.84;96737.38;5072957;28;20575;-72
2021/07/21 09:32:53;;;;;;;16.35;9.23;;;;;;;26.31;54.04;96733.34;5073164;28;20196;-72
2021/07/21 09:35:20;;;;;;;16.00;8.18;;;;;;;26.60;51.22;96733.53;5072717;28;20204;-72
2021/07/21 09:37:47;;;;;;;15.30;8.48;;;;;;;26.34;50.40;96730.97;5073061;28;20224;-72
2021/07/21 09:40:16;;;;;;;14.10;8.48;;;;;;;26.46;50.62;96729.69;5072786;28;20196;-73
2021/07/21 09:42:43;;;;;;;17.92;8.63;;;;;;;26.37;50.27;96732.34;5072790;28;20200;-72
2021/07/21 09:45:11;;;;;;;18.08;8.50;;;;;;;26.20;52.44;96729.00;5072579;28;20200;-72
2021/07/21 09:47:41;;;;;;;12.95;7.90;;;;;;;26.70;52.31;96724.63;5072677;28;20240;-72
2021/07/21 09:50:15;;;;;;;13.63;8.05;;;;;;;27.22;51.75;96726.16;5073084;28;20662;-72
2021/07/21 09:52:47;;;;;;;15.88;8.75;;;;;;;27.11;50.28;96725.31;5072519;28;20228;-73
2021/07/21 09:55:17;;;;;;;15.55;8.82;;;;;;;26.81;48.62;96731.72;5072328;28;20255;-72
2021/07/21 09:57:56;;;;;;;12.55;8.38;;;;;;;26.94;48.19;96728.50;5072228;28;20217;-71
2021/07/21 10:00:24;;;;;;;15.52;8.75;;;;;;;26.69;53.48;96723.84;5072530;28;20211;-72
2021/07/21 10:02:53;;;;;;;15.77;8.77;;;;;;;26.40;49.12;96735.34;5071878;28;20211;-72
2021/07/21 10:05:19;;;;;;;17.52;9.00;;;;;;;26.40;49.46;96723.69;5071236;28;20204;-72
2021/07/21 10:07:51;;;;;;;15.07;8.75;;;;;;;26.48;49.92;96726.72;5072120;28;20239;-72
2021/07/21 10:10:22;;;;;;;17.13;8.65;;;;;;;26.79;50.09;96731.16;5072471;28;20203;-72
2021/07/21 10:13:00;;;;;;;14.98;9.02;;;;;;;27.08;49.21;96730.44;5072281;28;20710;-71
2021/07/21 10:15:27;;;;;;;14.70;8.90;;;;;;;27.06;51.65;96729.09;5071984;28;20232;-71
2021/07/21 10:18:08;;;;;;;17.08;8.43;;;;;;;27.07;55.08;96728.00;5072057;28;20634;-71
2021/07/21 10:20:35;;;;;;;15.65;9.02;;;;;;;26.84;48.30;96723.06;5071954;28;20254;-71
2021/07/21 10:23:03;;;;;;;16.60;9.48;;;;;;;26.90;54.78;96719.28;5072407;28;20204;-71
2021/07/21 10:25:31;;;;;;;15.45;9.10;;;;;;;27.49;46.85;96719.38;5071896;28;20207;-72
2021/07/21 10:27:58;;;;;;;15.82;9.25;;;;;;;27.31;47.05;96719.13;5071915;28;20277;-72
2021/07/21 10:30:25;;;;;;;14.50;8.85;;;;;;;27.68;49.32;96723.19;5072085;28;20269;-71
2021/07/21 10:32:52;;;;;;;16.42;9.20;;;;;;;27.69;47.09;96722.13;5072004;28;20579;-72
2021/07/21 10:35:19;;;;;;;16.13;9.68;;;;;;;27.53;48.28;96719.66;5072078;28;20266;-72
2021/07/21 10:37:46;;;;;;;14.88;9.07;;;;;;;27.70;48.78;96713.72;5071654;28;20212;-72
2021/07/21 10:40:14;;;;;;;15.05;9.75;;;;;;;27.92;49.75;96718.84;5072040;28;20204;-72
2021/07/21 10:42:42;;;;;;;16.95;9.27;;;;;;;27.53;49.49;96709.63;5071934;28;20581;-72
2021/07/21 10:45:16;;;;;;;17.48;9.90;;;;;;;27.93;46.57;96715.88;5071810;28;20216;-71
2021/07/21 10:47:47;;;;;;;18.20;9.57;;;;;;;28.27;49.38;96716.09;5071521;28;20223;-71
2021/07/21 10:50:34;;;;;;;15.00;9.20;;;;;;;28.23;48.39;96712.31;5072017;28;20201;-72
2021/07/21 10:53:36;;;;;;;14.73;9.43;;;;;;;28.35;48.66;96709.00;5071489;28;20204;-72
2021/07/21 10:59:15;;;;;;;20.52;10.02;;;;;;;27.87;46.38;96711.53;5051914;28;20200;-71
2021/07/21 11:01:42;;;;;;;22.17;10.13;;;;;;;27.86;47.22;96714.50;5051829;28;20379;-72
2021/07/21 11:04:09;;;;;;;17.42;9.57;;;;;;;28.31;48.23;96722.56;5052194;28;20205;-71
2021/07/21 11:06:37;;;;;;;21.30;9.77;;;;;;;28.39;47.08;96717.41;5050396;28;20220;-71
2021/07/21 11:09:18;;;;;;;19.45;9.57;;;;;;;28.48;46.38;96713.03;5051530;28;20221;-71
2021/07/21 11:11:45;;;;;;;18.08;10.27;;;;;;;28.36;48.09;96710.63;5051321;28;20632;-71
2021/07/21 11:14:18;;;;;;;18.02;9.65;;;;;;;28.55;50.22;96706.22;5051681;28;20205;-71
2021/07/21 11:16:48;;;;;;;13.52;9.23;;;;;;;28.31;47.12;96700.88;5054567;28;20228;-72
2021/07/21 11:19:25;;;;;;;17.25;10.25;;;;;;;28.76;47.00;96702.34;5055701;28;20201;-71
2021/07/21 11:21:55;;;;;;;16.80;10.13;;;;;;;29.25;46.18;96708.56;5055583;28;20239;-72
2021/07/21 11:24:22;;;;;;;15.00;8.93;;;;;;;29.51;46.27;96702.69;5055580;28;20601;-72
2021/07/21 11:26:50;;;;;;;19.02;9.82;;;;;;;29.24;46.33;96696.91;5054912;28;20256;-72
2021/07/21 11:29:49;;;;;;;19.23;9.25;;;;;;;28.63;45.60;96712.97;5067402;28;20270;-72
2021/07/21 11:32:36;;;;;;;17.85;9.48;;;;;;;28.31;48.05;96701.72;5050831;28;20547;-72
2021/07/21 11:35:40;;;;;;;18.30;8.75;;;;;;;28.64;46.89;96696.41;5068875;28;20676;-71
2021/07/21 11:38:20;;;;;;;16.35;9.10;;;;;;;27.80;46.36;96693.94;5073221;28;20596;-71
2021/07/21 11:40:47;;;;;;;17.02;9.93;;;;;;;28.42;46.27;96709.53;5074996;28;20250;-72